Time;durP1;ratioP1;P1;durP2;ratioP2;P2;SDS_P1;SDS_P2;PMS_P1;PMS_P2;Temp;Humidity;BMP_temperature;BMP_pressure;BME280_temperature;BME280_humidity;BME280_pressure;Samples;Min_cycle;Max_cycle;Signal;HPM_P1;HPM_P2
2023/05/19 00:00:59;;;;;;;11.52;6.05;;;8.30;99.90;;;;;;4953884;28;20042;-61
2023/05/19 00:03:25;;;;;;;14.75;5.50;;;8.30;99.90;;;;;;4943206;28;20047;-62
2023/05/19 00:05:57;;;;;;;15.20;5.47;;;8.20;99.90;;;;;;4964958;28;20054;-61
2023/05/19 00:08:23;;;;;;;14.57;5.60;;;8.30;99.90;;;;;;4927423;28;20226;-61
2023/05/19 00:10:49;;;;;;;20.08;5.93;;;8.30;99.90;;;;;;4931852;28;20050;-61
2023/05/19 00:13:15;;;;;;;12.65;5.18;;;8.30;99.90;;;;;;4948057;28;20105;-61
2023/05/19 00:15:41;;;;;;;17.25;5.90;;;8.30;99.90;;;;;;4948264;28;20046;-62
2023/05/19 00:18:07;;;;;;;14.40;5.20;;;8.30;99.90;;;;;;4950410;28;20176;-62
2023/05/19 00:20:33;;;;;;;20.23;6.30;;;8.30;99.90;;;;;;4966676;28;20034;-62
2023/05/19 00:22:59;;;;;;;16.73;5.78;;;8.30;99.90;;;;;;4947008;28;20112;-62
2023/05/19 00:25:25;;;;;;;16.95;5.78;;;8.30;99.90;;;;;;4942757;28;20050;-61
2023/05/19 00:27:51;;;;;;;20.58;5.72;;;8.30;99.90;;;;;;4946584;28;20047;-61
2023/05/19 00:30:17;;;;;;;20.70;5.43;;;8.30;99.90;;;;;;4968407;28;20042;-61
2023/05/19 00:32:43;;;;;;;17.88;5.32;;;8.30;99.90;;;;;;4954732;28;20165;-60
2023/05/19 00:35:08;;;;;;;13.02;5.07;;;8.30;99.90;;;;;;4957586;28;20047;-61
2023/05/19 00:37:34;;;;;;;14.05;5.38;;;8.30;99.90;;;;;;4957602;28;20070;-61
2023/05/19 00:40:00;;;;;;;18.30;5.65;;;8.30;99.90;;;;;;4945141;28;20046;-61
2023/05/19 00:42:26;;;;;;;13.63;5.13;;;8.30;99.90;;;;;;4954431;28;20046;-61
2023/05/19 00:44:52;;;;;;;9.15;4.85;;;8.20;99.90;;;;;;4947482;28;20058;-61
2023/05/19 00:47:18;;;;;;;16.67;5.88;;;8.20;99.90;;;;;;4960441;28;20181;-61
2023/05/19 00:49:43;;;;;;;14.13;5.03;;;8.20;99.90;;;;;;4953575;28;20497;-62
2023/05/19 00:52:09;;;;;;;17.75;5.72;;;8.20;99.90;;;;;;4971204;28;20050;-62
2023/05/19 00:54:35;;;;;;;14.93;4.82;;;8.20;99.90;;;;;;4928631;28;20101;-62
2023/05/19 00:57:01;;;;;;;11.93;5.30;;;8.20;99.90;;;;;;4958371;28;20054;-62
2023/05/19 00:59:27;;;;;;;15.20;4.90;;;8.10;99.90;;;;;;4971197;28;20125;-62
2023/05/19 01:01:53;;;;;;;12.93;4.82;;;8.20;99.90;;;;;;4953109;28;21070;-62
2023/05/19 01:04:20;;;;;;;14.45;4.50;;;8.10;99.90;;;;;;4944084;28;20121;-61
2023/05/19 01:06:53;;;;;;;15.82;4.97;;;8.10;99.90;;;;;;4959998;28;20050;-62
2023/05/19 01:09:22;;;;;;;14.07;4.65;;;8.10;99.90;;;;;;4959850;28;20192;-62
2023/05/19 01:11:49;;;;;;;15.15;4.80;;;8.10;99.90;;;;;;4958433;28;20509;-62
2023/05/19 01:14:16;;;;;;;16.58;4.95;;;8.10;99.90;;;;;;4976588;28;20050;-61
2023/05/19 01:16:45;;;;;;;13.27;4.47;;;8.00;99.90;;;;;;4978618;28;20504;-62
2023/05/19 01:19:56;;;;;;;11.02;4.40;;;8.00;99.90;;;;;;4963073;28;20057;-62
2023/05/19 01:22:45;;;;;;;14.20;4.40;;;8.00;99.90;;;;;;4975633;28;20046;-61
2023/05/19 01:25:16;;;;;;;15.13;4.80;;;8.00;99.90;;;;;;4968639;28;20050;-61
2023/05/19 01:28:05;;;;;;;12.68;4.22;;;7.90;99.90;;;;;;4958854;28;20042;-61
2023/05/19 01:30:42;;;;;;;11.93;4.25;;;8.00;99.90;;;;;;4956835;28;20497;-61
2023/05/19 01:33:10;;;;;;;13.80;4.18;;;7.90;99.90;;;;;;4958136;28;20039;-61
2023/05/19 01:35:37;;;;;;;11.00;3.58;;;7.90;99.90;;;;;;4976304;28;20580;-61
2023/05/19 01:38:07;;;;;;;19.98;4.72;;;7.90;99.90;;;;;;4949864;28;20397;-62
2023/05/19 01:40:33;;;;;;;15.77;4.75;;;7.90;99.90;;;;;;4956755;28;20074;-62
2023/05/19 01:43:00;;;;;;;16.77;4.70;;;7.90;99.90;;;;;;4957201;28;20053;-62
2023/05/19 01:45:32;;;;;;;15.45;4.35;;;7.90;99.90;;;;;;4958554;28;20046;-62
2023/05/19 01:48:01;;;;;;;12.00;4.05;;;7.90;99.90;;;;;;4975892;28;20047;-62
2023/05/19 01:50:28;;;;;;;18.95;4.78;;;7.90;99.90;;;;;;4974984;28;20043;-61
2023/05/19 01:52:54;;;;;;;15.15;4.00;;;7.90;99.90;;;;;;4959602;28;20043;-61
2023/05/19 01:55:22;;;;;;;10.82;4.45;;;7.90;99.90;;;;;;4954631;28;20445;-61
2023/05/19 01:58:01;;;;;;;14.13;4.60;;;7.90;99.90;;;;;;4953704;28;20153;-62
2023/05/19 02:00:45;;;;;;;16.25;5.05;;;7.90;99.90;;;;;;4961303;28;20069;-62
2023/05/19 02:03:29;;;;;;;15.85;4.57;;;7.90;99.90;;;;;;4961542;28;20045;-62
2023/05/19 02:06:19;;;;;;;14.85;4.55;;;7.80;99.90;;;;;;4975603;28;20077;-62
2023/05/19 02:08:59;;;;;;;20.60;4.97;;;7.80;99.90;;;;;;4959174;28;20521;-62
2023/05/19 02:11:57;;;;;;;15.27;4.75;;;7.80;99.90;;;;;;4954970;28;20050;-62
2023/05/19 02:14:34;;;;;;;14.98;5.13;;;7.80;99.90;;;;;;4970065;28;20042;-61
2023/05/19 02:17:03;;;;;;;18.25;4.93;;;7.80;99.90;;;;;;4956469;28;20078;-62
2023/05/19 02:19:33;;;;;;;16.95;4.88;;;7.80;99.90;;;;;;4970749;28;20077;-62
2023/05/19 02:21:59;;;;;;;14.73;4.32;;;7.80;99.90;;;;;;4955928;28;20161;-62
2023/05/19 02:24:25;;;;;;;22.20;5.45;;;7.80;99.90;;;;;;4969306;28;20030;-61
2023/05/19 02:26:52;;;;;;;17.50;4.43;;;7.80;99.90;;;;;;4970492;28;20042;-62
2023/05/19 02:29:21;;;;;;;14.90;4.55;;;7.80;99.90;;;;;;4969660;28;20034;-62
2023/05/19 02:31:47;;;;;;;23.33;5.20;;;7.80;99.90;;;;;;4972591;28;20057;-61
2023/05/19 02:34:13;;;;;;;19.17;5.05;;;7.80;99.90;;;;;;4956431;28;20062;-62
2023/05/19 02:36:44;;;;;;;19.60;4.53;;;7.80;99.90;;;;;;4972969;28;20043;-62
2023/05/19 02:39:10;;;;;;;14.02;4.60;;;7.80;99.90;;;;;;4965352;28;20035;-62
2023/05/19 02:41:37;;;;;;;18.52;5.35;;;7.80;99.90;;;;;;4957378;28;20034;-62
2023/05/19 02:44:03;;;;;;;21.38;4.90;;;7.80;99.90;;;;;;4958249;28;20046;-62
2023/05/19 02:46:29;;;;;;;19.98;5.43;;;7.80;99.90;;;;;;4950920;28;20513;-62
2023/05/19 02:48:54;;;;;;;19.85;4.75;;;7.80;99.90;;;;;;4956138;28;20039;-62
2023/05/19 02:51:20;;;;;;;18.60;5.50;;;7.80;99.90;;;;;;4960295;28;20177;-61
2023/05/19 02:53:46;;;;;;;17.98;4.65;;;7.80;99.90;;;;;;4953163;28;20042;-62
2023/05/19 02:56:11;;;;;;;18.25;5.25;;;7.80;99.90;;;;;;4948669;28;20068;-62
2023/05/19 02:58:38;;;;;;;13.88;5.60;;;7.90;99.90;;;;;;4946733;28;20433;-61
2023/05/19 03:01:04;;;;;;;17.60;5.15;;;7.90;99.90;;;;;;4953336;28;20046;-61
2023/05/19 03:03:29;;;;;;;20.58;5.97;;;7.90;99.90;;;;;;4976279;28;20042;-61
2023/05/19 03:05:55;;;;;;;21.80;5.57;;;7.90;99.90;;;;;;4974565;28;20046;-62
2023/05/19 03:08:21;;;;;;;12.77;4.63;;;7.90;99.90;;;;;;4971134;28;20054;-62
2023/05/19 03:10:47;;;;;;;17.65;5.72;;;7.80;99.90;;;;;;4965881;28;20047;-62
2023/05/19 03:13:13;;;;;;;20.75;5.63;;;7.90;99.90;;;;;;4956155;28;20125;-62
2023/05/19 03:15:39;;;;;;;15.32;4.75;;;7.90;99.90;;;;;;4956166;28;20126;-62
2023/05/19 03:18:05;;;;;;;17.65;5.40;;;7.90;99.90;;;;;;4942458;28;20058;-62
2023/05/19 03:20:32;;;;;;;19.80;5.50;;;7.90;99.90;;;;;;4952595;28;20080;-62
2023/05/19 03:22:57;;;;;;;22.88;5.80;;;7.90;99.90;;;;;;4952340;28;20050;-62
2023/05/19 03:25:23;;;;;;;25.15;6.00;;;7.90;99.90;;;;;;4962695;28;20057;-61
2023/05/19 03:27:49;;;;;;;16.55;5.57;;;7.90;99.90;;;;;;4957072;28;20039;-62
2023/05/19 03:30:15;;;;;;;17.40;6.13;;;7.90;99.90;;;;;;4974508;28;20043;-61
2023/05/19 03:32:40;;;;;;;19.73;6.18;;;7.90;99.90;;;;;;4954366;28;20050;-62
2023/05/19 03:35:06;;;;;;;17.00;5.78;;;7.90;99.90;;;;;;4973312;28;20038;-61
2023/05/19 03:37:32;;;;;;;22.98;5.93;;;7.90;99.90;;;;;;4958816;28;20046;-61
2023/05/19 03:39:59;;;;;;;21.92;5.93;;;7.90;99.90;;;;;;4935084;28;20477;-62
2023/05/19 03:42:24;;;;;;;26.10;6.53;;;7.90;99.90;;;;;;4944461;28;20055;-61
2023/05/19 03:44:50;;;;;;;25.42;6.35;;;7.90;99.90;;;;;;4955533;28;20073;-62
2023/05/19 03:47:16;;;;;;;19.92;6.47;;;7.90;99.90;;;;;;4937752;28;20061;-62
2023/05/19 03:49:42;;;;;;;19.00;6.53;;;8.00;99.90;;;;;;4951056;28;20846;-62
2023/05/19 03:52:08;;;;;;;29.02;6.85;;;8.00;99.90;;;;;;4967868;28;20050;-61
2023/05/19 03:54:34;;;;;;;23.98;6.63;;;8.00;99.90;;;;;;4949947;28;20058;-62
2023/05/19 03:57:01;;;;;;;15.88;5.60;;;8.00;99.90;;;;;;4950737;28;20070;-62
2023/05/19 03:59:27;;;;;;;18.70;5.78;;;8.00;99.90;;;;;;4952442;28;20046;-62
2023/05/19 04:01:53;;;;;;;23.23;6.68;;;8.00;99.90;;;;;;4944027;28;20094;-61
2023/05/19 04:04:18;;;;;;;22.63;6.57;;;8.00;99.90;;;;;;4968131;28;20129;-61
2023/05/19 04:06:44;;;;;;;18.45;6.60;;;8.00;99.90;;;;;;4953663;28;20042;-61
2023/05/19 04:09:14;;;;;;;22.75;6.93;;;8.00;99.90;;;;;;4949055;28;20054;-62
2023/05/19 04:11:41;;;;;;;25.60;6.90;;;8.00;99.90;;;;;;4959628;28;20054;-61
2023/05/19 04:14:07;;;;;;;21.50;6.80;;;8.00;99.90;;;;;;4971448;28;20038;-62
2023/05/19 04:16:33;;;;;;;25.67;6.97;;;8.00;99.90;;;;;;4952152;28;20038;-62
2023/05/19 04:19:00;;;;;;;17.55;6.90;;;8.10;99.90;;;;;;4950010;28;20100;-61
2023/05/19 04:21:26;;;;;;;23.45;7.47;;;8.10;99.90;;;;;;4973970;28;20034;-62
2023/05/19 04:23:52;;;;;;;23.92;7.20;;;8.10;99.90;;;;;;4951312;28;20129;-61
2023/05/19 04:26:20;;;;;;;26.33;7.72;;;8.20;99.90;;;;;;4969901;28;20035;-61
2023/05/19 04:28:47;;;;;;;28.38;6.78;;;8.20;99.90;;;;;;4952568;28;20042;-61
2023/05/19 04:31:16;;;;;;;23.90;7.13;;;8.20;99.90;;;;;;4955283;28;20050;-62
2023/05/19 04:33:41;;;;;;;24.50;7.55;;;8.20;99.90;;;;;;4971883;28;20054;-62
2023/05/19 04:36:09;;;;;;;12.43;5.97;;;8.30;99.90;;;;;;4949690;28;20500;-61
2023/05/19 04:38:38;;;;;;;18.48;7.00;;;8.30;99.90;;;;;;4953521;28;20454;-61
2023/05/19 04:41:10;;;;;;;21.00;6.60;;;8.40;99.90;;;;;;4935869;28;20125;-62
2023/05/19 04:43:40;;;;;;;20.77;7.22;;;8.40;99.90;;;;;;4946239;28;20042;-61
2023/05/19 04:46:12;;;;;;;20.10;6.60;;;8.40;99.90;;;;;;4937877;28;20050;-62
2023/05/19 04:48:41;;;;;;;16.17;7.40;;;8.50;99.90;;;;;;4967503;28;20117;-62
2023/05/19 04:51:07;;;;;;;24.05;7.15;;;8.50;99.90;;;;;;4951188;28;20042;-62
2023/05/19 04:53:33;;;;;;;21.80;7.10;;;8.60;99.90;;;;;;4952713;28;20039;-62
2023/05/19 04:55:59;;;;;;;16.52;6.95;;;8.60;99.90;;;;;;4965089;28;20047;-61
2023/05/19 04:58:26;;;;;;;23.15;7.18;;;8.70;99.90;;;;;;4956612;28;20540;-62
2023/05/19 05:00:54;;;;;;;20.70;7.65;;;8.70;99.90;;;;;;4938192;28;20056;-62
2023/05/19 05:03:23;;;;;;;19.35;7.80;;;8.80;99.90;;;;;;4951901;28;20058;-62
2023/05/19 05:05:49;;;;;;;20.58;7.05;;;8.80;99.90;;;;;;4969272;28;20097;-62
2023/05/19 05:08:21;;;;;;;16.40;7.40;;;8.80;99.90;;;;;;4951120;28;20940;-61
2023/05/19 05:10:51;;;;;;;20.70;7.20;;;8.90;99.90;;;;;;4952757;28;20081;-62
2023/05/19 05:13:20;;;;;;;19.42;6.88;;;8.90;99.90;;;;;;4968837;28;20050;-62
2023/05/19 05:15:46;;;;;;;14.63;6.80;;;9.00;99.90;;;;;;4958004;28;20048;-62
2023/05/19 05:18:13;;;;;;;24.58;8.65;;;9.00;99.90;;;;;;4958119;28;20446;-61
2023/05/19 05:20:42;;;;;;;15.15;6.75;;;9.10;99.90;;;;;;4943136;28;20125;-61
2023/05/19 05:23:09;;;;;;;20.30;7.65;;;9.10;99.90;;;;;;4961372;28;20043;-62
2023/05/19 05:25:36;;;;;;;17.45;7.00;;;9.20;99.90;;;;;;4959061;28;20045;-61
2023/05/19 05:28:03;;;;;;;19.58;7.43;;;9.20;99.90;;;;;;4953961;28;20137;-62
2023/05/19 05:30:30;;;;;;;17.52;7.50;;;9.30;99.90;;;;;;4958727;28;20391;-62
2023/05/19 05:32:56;;;;;;;22.30;7.60;;;9.30;99.90;;;;;;4955035;28;20130;-62
2023/05/19 05:35:23;;;;;;;16.58;7.05;;;9.40;99.90;;;;;;4969473;28;20485;-62
2023/05/19 05:37:49;;;;;;;17.77;8.30;;;9.40;99.90;;;;;;4963001;28;20031;-62
2023/05/19 05:40:14;;;;;;;18.80;7.70;;;9.50;99.90;;;;;;4946338;28;20086;-61
2023/05/19 05:42:42;;;;;;;31.05;8.23;;;9.50;99.90;;;;;;4937180;28;20248;-62
2023/05/19 05:45:08;;;;;;;17.13;7.25;;;9.60;99.90;;;;;;4953574;28;20049;-63
2023/05/19 05:47:36;;;;;;;17.75;7.07;;;9.70;99.90;;;;;;4941186;28;20054;-63
2023/05/19 05:50:04;;;;;;;15.95;7.10;;;9.70;99.90;;;;;;4968403;28;20501;-63
2023/05/19 05:52:31;;;;;;;18.45;7.07;;;9.80;99.90;;;;;;4967751;28;20046;-62
2023/05/19 05:54:57;;;;;;;19.45;7.72;;;9.80;99.90;;;;;;4956512;28;20074;-63
2023/05/19 05:57:23;;;;;;;16.88;7.30;;;10.00;99.90;;;;;;4942684;28;20053;-63
2023/05/19 05:59:49;;;;;;;16.98;7.50;;;10.00;99.90;;;;;;4941152;28;20649;-63
2023/05/19 06:02:16;;;;;;;13.60;6.97;;;10.10;99.90;;;;;;4944955;28;20042;-63
2023/05/19 06:04:42;;;;;;;13.07;6.35;;;10.10;99.90;;;;;;4962113;28;20049;-63
2023/05/19 06:07:08;;;;;;;11.75;6.68;;;10.20;99.90;;;;;;4951306;28;20055;-63
2023/05/19 06:09:34;;;;;;;17.88;6.82;;;10.30;99.90;;;;;;4950321;28;20047;-63
2023/05/19 06:12:00;;;;;;;15.75;5.85;;;10.30;99.90;;;;;;4955077;28;20047;-63
2023/05/19 06:14:26;;;;;;;16.25;6.53;;;10.40;99.90;;;;;;4947682;28;20066;-62
2023/05/19 06:16:52;;;;;;;15.23;6.20;;;10.50;99.90;;;;;;4932867;28;20042;-63
2023/05/19 06:19:18;;;;;;;11.40;5.50;;;10.60;99.90;;;;;;4952056;28;20108;-63
2023/05/19 06:21:44;;;;;;;17.73;5.80;;;10.60;99.90;;;;;;4949770;28;20039;-63
2023/05/19 06:24:11;;;;;;;16.17;5.72;;;10.70;99.90;;;;;;4932877;28;20045;-63
2023/05/19 06:26:36;;;;;;;13.95;5.50;;;10.80;99.90;;;;;;4956368;28;20126;-63
2023/05/19 06:29:02;;;;;;;14.40;5.30;;;10.90;99.90;;;;;;4950851;28;20049;-63
2023/05/19 06:31:28;;;;;;;14.55;5.93;;;11.00;99.90;;;;;;4955108;28;20050;-63
2023/05/19 06:33:54;;;;;;;10.18;5.72;;;11.10;99.90;;;;;;4962184;28;20482;-63
2023/05/19 06:36:20;;;;;;;13.10;5.75;;;11.20;99.90;;;;;;4956408;28;20081;-63
2023/05/19 06:38:45;;;;;;;15.90;5.97;;;11.30;99.90;;;;;;4940528;28;20090;-63
2023/05/19 06:41:11;;;;;;;15.05;5.72;;;11.30;99.90;;;;;;4948216;28;20188;-62
2023/05/19 06:43:37;;;;;;;16.92;6.05;;;11.50;99.90;;;;;;4935344;28;20058;-63
2023/05/19 06:46:03;;;;;;;14.52;4.82;;;11.60;99.90;;;;;;4953168;28;20050;-63
2023/05/19 06:48:29;;;;;;;12.68;5.20;;;11.70;99.90;;;;;;4947312;28;20125;-63
2023/05/19 06:50:55;;;;;;;12.80;4.63;;;11.80;99.90;;;;;;4951128;28;20047;-63
2023/05/19 06:53:21;;;;;;;12.98;4.22;;;11.80;99.90;;;;;;4946547;28;20391;-63
2023/05/19 06:55:49;;;;;;;13.93;4.72;;;11.90;99.90;;;;;;4940124;28;20651;-63
2023/05/19 06:58:15;;;;;;;12.50;4.45;;;11.90;99.90;;;;;;4943987;28;20035;-63
2023/05/19 07:00:42;;;;;;;13.48;4.70;;;12.00;99.90;;;;;;4946812;28;20047;-63
2023/05/19 07:03:08;;;;;;;13.95;4.63;;;12.10;99.90;;;;;;4942719;28;20362;-63
2023/05/19 07:05:34;;;;;;;10.98;4.20;;;12.20;99.90;;;;;;4944400;28;20054;-63
2023/05/19 07:08:00;;;;;;;12.50;5.07;;;12.30;99.90;;;;;;4955262;28;20132;-63
2023/05/19 07:10:26;;;;;;;9.95;4.15;;;12.40;99.90;;;;;;4961127;28;20054;-63
2023/05/19 07:12:52;;;;;;;10.48;4.00;;;12.50;99.90;;;;;;4947738;28;20397;-63
2023/05/19 07:15:18;;;;;;;13.95;4.80;;;12.70;99.90;;;;;;4941526;28;20046;-63
2023/05/19 07:17:43;;;;;;;12.18;4.38;;;12.80;99.90;;;;;;4951242;28;20050;-63
2023/05/19 07:20:09;;;;;;;9.30;3.95;;;12.90;99.90;;;;;;4966875;28;20038;-63
2023/05/19 07:22:37;;;;;;;10.68;4.13;;;13.00;99.90;;;;;;4963338;28;20034;-63
2023/05/19 07:25:03;;;;;;;11.27;4.00;;;13.10;99.90;;;;;;4961147;28;20564;-63
2023/05/19 07:27:29;;;;;;;10.95;4.30;;;13.20;99.90;;;;;;4968050;28;20039;-63
2023/05/19 07:29:54;;;;;;;10.65;4.03;;;13.30;99.90;;;;;;4943942;28;20046;-63
2023/05/19 07:32:20;;;;;;;11.50;4.22;;;13.40;99.90;;;;;;4919753;28;20065;-63
2023/05/19 07:34:46;;;;;;;9.43;3.58;;;13.40;99.90;;;;;;4967402;28;20061;-63
2023/05/19 07:37:12;;;;;;;9.18;3.70;;;13.50;99.90;;;;;;4951669;28;20082;-63
2023/05/19 07:39:37;;;;;;;11.52;3.88;;;13.60;99.90;;;;;;4965226;28;20057;-63
2023/05/19 07:42:03;;;;;;;8.75;4.53;;;13.70;99.90;;;;;;4954650;28;20043;-63
2023/05/19 07:44:30;;;;;;;10.48;4.20;;;13.80;99.90;;;;;;4955613;28;20038;-60
2023/05/19 07:46:56;;;;;;;6.70;3.40;;;13.90;99.90;;;;;;4949133;28;20055;-62
2023/05/19 07:49:22;;;;;;;12.13;3.92;;;14.00;99.90;;;;;;4937328;28;20046;-60
2023/05/19 07:51:47;;;;;;;7.32;3.30;;;14.10;99.90;;;;;;4933332;28;20046;-61
2023/05/19 07:54:13;;;;;;;9.00;3.40;;;14.20;99.90;;;;;;4959927;28;20034;-61
2023/05/19 07:56:40;;;;;;;12.30;3.40;;;14.30;99.90;;;;;;4971342;28;20121;-60
2023/05/19 07:59:06;;;;;;;7.57;3.13;;;14.40;99.90;;;;;;4961625;28;20707;-62
2023/05/19 08:01:33;;;;;;;11.65;3.15;;;14.50;99.90;;;;;;4924452;28;20038;-61
2023/05/19 08:03:58;;;;;;;7.93;2.92;;;14.60;99.90;;;;;;4948441;28;20046;-61
2023/05/19 08:06:24;;;;;;;6.43;2.90;;;14.70;99.90;;;;;;4952729;28;20051;-61
2023/05/19 08:08:51;;;;;;;9.43;3.00;;;14.80;99.90;;;;;;4966893;28;20441;-60
2023/05/19 08:11:16;;;;;;;12.68;3.47;;;14.90;99.90;;;;;;4951723;28;20070;-61
2023/05/19 08:13:42;;;;;;;8.90;3.05;;;15.00;99.90;;;;;;4933961;28;20979;-61
2023/05/19 08:16:08;;;;;;;11.10;3.17;;;15.10;99.70;;;;;;4949837;28;20125;-61
2023/05/19 08:18:34;;;;;;;13.43;3.50;;;15.10;99.60;;;;;;4961232;28;20053;-60
2023/05/19 08:21:00;;;;;;;10.30;3.22;;;15.20;99.40;;;;;;4944399;28;20042;-60
2023/05/19 08:23:26;;;;;;;11.00;2.90;;;15.30;99.40;;;;;;4957842;28;20050;-60
2023/05/19 08:25:51;;;;;;;7.28;3.25;;;15.50;99.20;;;;;;4955810;28;20038;-62
2023/05/19 08:28:17;;;;;;;10.65;3.25;;;15.50;98.30;;;;;;4961221;28;20070;-61
2023/05/19 08:30:43;;;;;;;5.40;2.90;;;15.60;98.50;;;;;;4952344;28;20632;-61
2023/05/19 08:33:08;;;;;;;9.63;3.30;;;15.70;98.40;;;;;;4956958;28;20480;-60
2023/05/19 08:35:34;;;;;;;8.73;3.20;;;15.70;98.30;;;;;;4948408;28;20536;-62
2023/05/19 08:38:00;;;;;;;8.75;3.13;;;15.90;98.20;;;;;;4926705;28;20049;-60
2023/05/19 08:40:30;;;;;;;6.63;3.22;;;16.00;97.90;;;;;;4965658;28;20041;-59
2023/05/19 08:42:56;;;;;;;10.43;3.72;;;16.00;98.00;;;;;;4975074;28;20142;-60
2023/05/19 08:45:21;;;;;;;11.55;3.80;;;16.20;97.90;;;;;;4963069;28;20049;-61
2023/05/19 08:47:49;;;;;;;9.65;3.50;;;16.30;97.50;;;;;;4947623;28;20117;-61
2023/05/19 08:50:27;;;;;;;11.48;3.97;;;16.40;97.20;;;;;;4960350;28;20591;-60
2023/05/19 08:53:02;;;;;;;9.95;3.83;;;16.40;96.20;;;;;;4978908;28;20069;-61
2023/05/19 08:55:38;;;;;;;11.98;3.63;;;16.50;96.50;;;;;;4974090;28;20046;-61
2023/05/19 08:58:04;;;;;;;8.63;3.53;;;16.50;96.10;;;;;;4979882;28;20050;-61
2023/05/19 09:00:31;;;;;;;10.70;3.33;;;16.60;95.90;;;;;;4947290;28;20057;-59
2023/05/19 09:02:59;;;;;;;9.07;2.97;;;16.60;95.20;;;;;;4927342;28;20057;-61
2023/05/19 09:05:25;;;;;;;9.45;3.55;;;16.70;94.50;;;;;;4978464;28;20054;-60
2023/05/19 09:07:50;;;;;;;7.93;3.63;;;16.70;94.70;;;;;;4979498;28;20069;-60
2023/05/19 09:10:16;;;;;;;10.93;3.05;;;16.90;94.70;;;;;;4949213;28;20089;-60
2023/05/19 09:12:44;;;;;;;9.18;3.28;;;16.90;93.50;;;;;;4968259;28;20100;-61
2023/05/19 09:15:11;;;;;;;7.60;3.00;;;17.00;93.60;;;;;;4962700;28;20046;-61
2023/05/19 09:17:37;;;;;;;7.30;3.15;;;17.10;93.50;;;;;;4945275;28;20086;-61
2023/05/19 09:20:10;;;;;;;11.85;3.33;;;17.20;92.90;;;;;;4962450;28;20054;-61
2023/05/19 09:22:49;;;;;;;8.80;3.17;;;17.30;91.90;;;;;;4959197;28;20158;-60
2023/05/19 09:25:22;;;;;;;7.47;2.95;;;17.40;92.10;;;;;;4972789;28;20046;-62
2023/05/19 09:27:48;;;;;;;11.90;3.30;;;17.50;90.90;;;;;;4981574;28;20047;-62
2023/05/19 09:30:16;;;;;;;8.52;3.85;;;17.60;90.60;;;;;;4964403;28;20441;-63
2023/05/19 09:32:42;;;;;;;10.73;3.30;;;17.60;89.80;;;;;;4974154;28;20385;-61
2023/05/19 09:35:08;;;;;;;7.80;3.00;;;17.60;90.10;;;;;;4958007;28;20461;-61
2023/05/19 09:37:34;;;;;;;6.80;3.22;;;17.80;90.50;;;;;;4967656;28;20046;-60
2023/05/19 09:40:00;;;;;;;6.60;2.55;;;17.90;89.60;;;;;;4977472;28;20094;-61
2023/05/19 09:42:27;;;;;;;12.00;3.35;;;17.90;89.30;;;;;;4940987;28;20513;-62
2023/05/19 09:45:02;;;;;;;9.57;3.45;;;18.00;88.90;;;;;;4975205;28;20140;-61
2023/05/19 09:47:38;;;;;;;7.47;2.97;;;18.00;86.40;;;;;;4961272;28;20042;-61
2023/05/19 09:50:09;;;;;;;11.55;3.00;;;17.90;84.90;;;;;;4958191;28;20066;-61
2023/05/19 09:52:39;;;;;;;12.07;3.05;;;17.90;85.70;;;;;;4947479;28;20057;-61
2023/05/19 09:55:09;;;;;;;7.43;2.63;;;18.00;82.60;;;;;;4959638;28;20756;-61
2023/05/19 09:57:36;;;;;;;7.53;2.75;;;18.00;81.90;;;;;;4945262;28;20446;-61
2023/05/19 10:00:13;;;;;;;7.85;3.13;;;18.10;81.60;;;;;;4965895;28;20046;-61
2023/05/19 10:02:46;;;;;;;9.90;2.70;;;18.20;81.20;;;;;;4933431;28;20065;-61
2023/05/19 10:05:15;;;;;;;7.60;2.58;;;18.20;80.40;;;;;;4947682;28;20050;-64
2023/05/19 10:07:53;;;;;;;7.13;2.28;;;18.30;80.90;;;;;;4955218;28;20090;-64
2023/05/19 10:10:19;;;;;;;10.88;2.60;;;18.50;81.80;;;;;;4957657;28;20058;-63
2023/05/19 10:12:46;;;;;;;10.95;2.40;;;18.60;78.90;;;;;;4961641;28;20050;-61
2023/05/19 10:15:14;;;;;;;6.68;2.55;;;18.80;77.40;;;;;;4964143;28;20725;-64
2023/05/19 10:17:41;;;;;;;7.22;2.60;;;18.80;75.80;;;;;;4952857;28;20398;-65
2023/05/19 10:20:12;;;;;;;8.23;3.42;;;18.80;75.10;;;;;;4979713;28;20115;-64
2023/05/19 10:22:40;;;;;;;7.75;2.83;;;18.90;74.40;;;;;;4954707;28;20125;-64
2023/05/19 10:25:06;;;;;;;9.00;2.83;;;19.00;75.60;;;;;;4962389;28;20042;-65
2023/05/19 10:27:43;;;;;;;9.77;3.00;;;18.90;74.30;;;;;;4951550;28;20077;-65
2023/05/19 10:30:21;;;;;;;9.70;3.45;;;19.00;74.10;;;;;;4975952;28;20042;-64
2023/05/19 10:32:48;;;;;;;11.07;3.60;;;18.90;74.00;;;;;;4940235;28;20195;-63
2023/05/19 10:35:39;;;;;;;5.25;2.78;;;18.90;74.00;;;;;;4956404;28;20061;-64
2023/05/19 10:38:37;;;;;;;8.18;3.10;;;18.90;74.10;;;;;;4965966;28;20053;-64
2023/05/19 10:41:22;;;;;;;9.63;2.80;;;19.00;74.30;;;;;;4942375;28;20133;-63
2023/05/19 10:43:53;;;;;;;8.07;3.10;;;19.20;72.90;;;;;;4959608;28;20483;-64
2023/05/19 10:46:24;;;;;;;5.85;2.53;;;19.20;73.70;;;;;;4963308;28;20057;-64
2023/05/19 10:48:50;;;;;;;6.40;2.78;;;19.30;73.20;;;;;;4957349;28;20054;-62
2023/05/19 10:51:16;;;;;;;7.80;3.00;;;19.40;74.00;;;;;;4955101;28;20065;-65
2023/05/19 10:53:45;;;;;;;9.57;2.80;;;19.40;72.10;;;;;;4954615;28;20488;-62
2023/05/19 10:56:27;;;;;;;6.90;2.92;;;19.40;70.10;;;;;;4951492;28;20047;-62
2023/05/19 10:58:53;;;;;;;9.05;3.08;;;19.20;68.40;;;;;;4956340;28;20065;-63
2023/05/19 11:01:20;;;;;;;6.15;2.60;;;19.10;69.90;;;;;;4960249;28;20162;-64
2023/05/19 11:03:50;;;;;;;6.07;2.33;;;19.20;71.70;;;;;;4956736;28;20111;-64
2023/05/19 11:06:28;;;;;;;6.45;2.65;;;19.40;71.60;;;;;;4955823;28;20041;-63
2023/05/19 11:09:22;;;;;;;9.27;3.28;;;19.60;69.30;;;;;;4960357;28;20071;-63
2023/05/19 11:11:52;;;;;;;6.15;2.90;;;19.80;69.20;;;;;;4952310;28;20058;-63
2023/05/19 11:14:28;;;;;;;7.63;2.70;;;19.90;69.30;;;;;;4959948;28;20502;-63
2023/05/19 11:16:59;;;;;;;10.18;3.08;;;20.10;69.50;;;;;;4954993;28;20038;-63
2023/05/19 11:19:30;;;;;;;10.10;3.58;;;20.20;68.90;;;;;;4943971;28;20117;-63
2023/05/19 11:22:06;;;;;;;9.63;3.17;;;20.30;69.00;;;;;;4954313;28;20505;-64
2023/05/19 11:24:52;;;;;;;7.82;3.08;;;20.50;68.60;;;;;;4943911;28;20148;-64
2023/05/19 11:27:31;;;;;;;9.77;3.20;;;20.60;67.80;;;;;;4963171;28;20050;-64
2023/05/19 11:30:08;;;;;;;9.50;2.85;;;20.60;67.50;;;;;;4963837;28;20881;-64
2023/05/19 11:32:38;;;;;;;9.45;2.95;;;20.60;66.00;;;;;;4961284;28;20046;-63
2023/05/19 11:35:04;;;;;;;8.32;3.20;;;20.60;65.00;;;;;;4953831;28;20125;-62
2023/05/19 11:37:33;;;;;;;7.07;3.13;;;20.60;65.70;;;;;;4968690;28;20102;-63
2023/05/19 11:40:06;;;;;;;7.80;3.00;;;20.70;65.30;;;;;;4960863;28;20068;-62
2023/05/19 11:42:33;;;;;;;10.98;3.08;;;20.70;64.70;;;;;;4966514;28;20500;-62
2023/05/19 11:45:00;;;;;;;8.02;3.13;;;20.70;65.30;;;;;;4968821;28;20049;-63
2023/05/19 11:47:26;;;;;;;9.77;2.75;;;20.70;64.40;;;;;;4965827;28;20042;-63
2023/05/19 11:49:55;;;;;;;6.88;2.75;;;20.80;65.10;;;;;;4943294;28;20392;-62
2023/05/19 11:52:26;;;;;;;9.98;2.90;;;20.90;64.80;;;;;;4950836;28;20134;-63
2023/05/19 11:54:52;;;;;;;12.35;2.90;;;21.00;62.70;;;;;;4972620;28;20369;-63
2023/05/19 11:57:18;;;;;;;8.48;2.95;;;21.10;63.90;;;;;;4961783;28;20049;-63
2023/05/19 11:59:44;;;;;;;8.20;2.80;;;21.20;62.90;;;;;;4938916;28;20049;-63
2023/05/19 12:02:18;;;;;;;7.13;2.75;;;21.20;62.20;;;;;;4961121;28;20046;-63
2023/05/19 12:04:44;;;;;;;6.60;2.38;;;21.30;62.40;;;;;;4958235;28;20395;-62
2023/05/19 12:07:12;;;;;;;7.93;2.53;;;21.30;62.40;;;;;;4948375;28;20070;-63
2023/05/19 12:09:38;;;;;;;6.75;2.42;;;21.40;62.20;;;;;;4964185;28;20208;-63
2023/05/19 12:12:04;;;;;;;10.65;3.00;;;21.30;61.30;;;;;;4941902;28;20054;-63
2023/05/19 12:14:30;;;;;;;8.65;2.80;;;21.20;60.10;;;;;;4960993;28;20050;-63
2023/05/19 12:16:56;;;;;;;8.77;2.78;;;21.10;60.10;;;;;;4941742;28;20068;-62
2023/05/19 12:19:25;;;;;;;7.78;2.92;;;21.00;60.90;;;;;;4953397;28;20101;-64
2023/05/19 12:21:52;;;;;;;11.90;2.60;;;21.00;61.20;;;;;;4965370;28;20050;-64
2023/05/19 12:24:21;;;;;;;8.68;2.58;;;21.10;61.00;;;;;;4963200;28;20140;-63
2023/05/19 12:26:49;;;;;;;7.65;2.58;;;21.30;59.80;;;;;;4965467;28;20057;-62
2023/05/19 12:29:14;;;;;;;5.47;2.15;;;21.40;60.70;;;;;;4963788;28;20429;-63
2023/05/19 12:31:40;;;;;;;5.70;2.38;;;21.60;61.90;;;;;;4962969;28;20086;-62
2023/05/19 12:34:06;;;;;;;8.38;2.95;;;21.90;60.70;;;;;;4960910;28;20141;-62
2023/05/19 12:36:32;;;;;;;7.28;2.78;;;22.10;60.60;;;;;;4961118;28;20054;-63
2023/05/19 12:38:58;;;;;;;5.97;2.38;;;22.20;59.70;;;;;;4945552;28;20066;-67
2023/05/19 12:41:26;;;;;;;5.05;2.40;;;22.30;59.30;;;;;;4942813;28;20609;-69
2023/05/19 12:43:53;;;;;;;8.13;2.50;;;22.50;59.60;;;;;;4946180;28;20100;-66
2023/05/19 12:46:19;;;;;;;6.80;2.40;;;22.60;59.30;;;;;;4954061;28;20078;-65
2023/05/19 12:48:46;;;;;;;7.38;2.60;;;22.50;58.50;;;;;;4972733;28;20081;-68
2023/05/19 12:51:16;;;;;;;6.68;2.35;;;22.50;58.50;;;;;;4950302;28;20050;-67